Colorado Springs, CO (80919)

10:32 AM MDT on May 28, 2015 (GMT -0600)
At the Orton-Urbina's | | Change Station
CLOSE
Current Station
Personal Weather Station
Location: Colorado Springs, CO
Elevation: 6700 ft
Nearby Weather Stations

Elev 6700 ft 38.93 °N, 104.85 °W | Updated 2 minutes ago

Partly Cloudy
Partly Cloudy
71.2 °F
Feels Like 76 °F
N
0.9
Wind Variable Wind from SE
Gusts 2.0 mph

Today
High -- | Low -- °F
--% Chance of Precip.
Yesterday
High -- | Low -- °F
Precip. -- in
5:37 AM 8:15 PM
Waxing Gibbous, 77% visible
Pressure 29.86 in
Visibility 10.0 miles
Clouds Few 5000 ft
Scattered Clouds 15000 ft
Mostly Cloudy 20000 ft
Heat Index 76 °F
Dew Point 39 °F
Humidity 31%
Rainfall -999.00 in
Snow Depth Not available.
UV 4 out of 12
Pollen 7.80 out of 12
Air Quality Not available.
Flu Activity Sporadic
METAR KAFF 281558Z 20006KT 10SM FEW050 SCT150 BKN200 19/05 A3010 RMK AO2A SLP111 T01880046

More Conditions Fewer Conditions

Pressure 29.86 in
Visibility 10.0 miles
Clouds Few 5000 ft
Scattered Clouds 15000 ft
Mostly Cloudy 20000 ft
Heat Index 76 °F
Dew Point 39 °F
Humidity 31%
Rainfall -999.00 in
Snow Depth Not available.
UV 4 out of 12
Pollen 7.80 out of 12
Air Quality Not available.
Flu Activity Sporadic
METAR KAFF 281558Z 20006KT 10SM FEW050 SCT150 BKN200 19/05 A3010 RMK AO2A SLP111 T01880046

More Conditions Fewer Conditions

10-Day Weather Forecast

Almanac

Astronomy

May. 28, 2015 Rise Set
Actual Time
Civil Twilight
Nautical Twilight
Astronomical Twilight
Moon
Length of Visible Light
Length of Day
Tomorrow will be .
, % of the Moon is Illuminated

Today's Extremes

State Highs State Lows

Community

WunderPhotos

Upload Photos

1,825,003 photos uploaded!

WunderBlogs® & News

Nearby

Air Quality

  Air Quality AQ Index Pollutant
Not available.

Snow Depth

Station Depth Elevation

Earthquake Activity

City Distance Mag. Time & Date
Minimum magnitude displayed is 2.5.

Coastal Water Temperatures

Place Temperature

Stations

Nearby Weather Stations

Station Location Temp. Windchill Dew Point Humidity Wind Precip. Elev Updated Type